sensor_id;sensor_type;location;lat;lon;timestamp;temperature;humidity
29803;DHT22;16702;50.898;4.662;2023-02-13T00:00:44;7.10;99.90
29803;DHT22;16702;50.898;4.662;2023-02-13T00:03:15;7.10;99.90
29803;DHT22;16702;50.898;4.662;2023-02-13T00:05:45;7.00;99.90
29803;DHT22;16702;50.898;4.662;2023-02-13T00:08:15;7.10;99.90
29803;DHT22;16702;50.898;4.662;2023-02-13T00:10:45;7.10;99.90
29803;DHT22;16702;50.898;4.662;2023-02-13T00:13:15;7.00;99.90
29803;DHT22;16702;50.898;4.662;2023-02-13T00:15:56;7.00;99.90
29803;DHT22;16702;50.898;4.662;2023-02-13T00:18:26;7.00;99.90
29803;DHT22;16702;50.898;4.662;2023-02-13T00:20:57;7.00;99.90
29803;DHT22;16702;50.898;4.662;2023-02-13T00:23:28;6.90;99.90
29803;DHT22;16702;50.898;4.662;2023-02-13T00:25:59;6.90;99.90
29803;DHT22;16702;50.898;4.662;2023-02-13T00:28:29;7.00;99.90
29803;DHT22;16702;50.898;4.662;2023-02-13T00:31:06;6.90;99.90
29803;DHT22;16702;50.898;4.662;2023-02-13T00:33:37;6.90;99.90
29803;DHT22;16702;50.898;4.662;2023-02-13T00:36:08;6.90;99.90
29803;DHT22;16702;50.898;4.662;2023-02-13T00:38:39;6.90;99.90
29803;DHT22;16702;50.898;4.662;2023-02-13T00:41:11;6.90;99.90
29803;DHT22;16702;50.898;4.662;2023-02-13T00:43:42;6.80;99.90
29803;DHT22;16702;50.898;4.662;2023-02-13T00:46:16;6.80;99.90
29803;DHT22;16702;50.898;4.662;2023-02-13T00:48:46;6.80;99.90
29803;DHT22;16702;50.898;4.662;2023-02-13T00:51:16;6.70;99.90
29803;DHT22;16702;50.898;4.662;2023-02-13T00:53:46;6.70;99.90
29803;DHT22;16702;50.898;4.662;2023-02-13T00:56:16;6.70;99.90
29803;DHT22;16702;50.898;4.662;2023-02-13T00:58:46;6.70;99.90
29803;DHT22;16702;50.898;4.662;2023-02-13T01:01:19;6.70;99.90
29803;DHT22;16702;50.898;4.662;2023-02-13T01:03:49;6.60;99.90
29803;DHT22;16702;50.898;4.662;2023-02-13T01:06:20;6.60;99.90
29803;DHT22;16702;50.898;4.662;2023-02-13T01:08:50;6.60;99.90
29803;DHT22;16702;50.898;4.662;2023-02-13T01:11:20;6.60;99.90
29803;DHT22;16702;50.898;4.662;2023-02-13T01:13:50;6.60;99.90
29803;DHT22;16702;50.898;4.662;2023-02-13T01:16:23;6.60;99.90
29803;DHT22;16702;50.898;4.662;2023-02-13T01:18:54;6.60;99.90
29803;DHT22;16702;50.898;4.662;2023-02-13T01:21:24;6.60;99.90
29803;DHT22;16702;50.898;4.662;2023-02-13T01:23:54;6.50;99.90
29803;DHT22;16702;50.898;4.662;2023-02-13T01:26:25;6.50;99.90
29803;DHT22;16702;50.898;4.662;2023-02-13T01:28:55;6.60;99.90
29803;DHT22;16702;50.898;4.662;2023-02-13T01:31:27;6.50;99.90
29803;DHT22;16702;50.898;4.662;2023-02-13T01:33:58;6.50;99.90
29803;DHT22;16702;50.898;4.662;2023-02-13T01:36:31;6.40;99.90
29803;DHT22;16702;50.898;4.662;2023-02-13T01:39:01;6.40;99.90
29803;DHT22;16702;50.898;4.662;2023-02-13T01:41:31;6.40;99.90
29803;DHT22;16702;50.898;4.662;2023-02-13T01:44:01;6.40;99.90
29803;DHT22;16702;50.898;4.662;2023-02-13T01:46:34;6.40;99.90
29803;DHT22;16702;50.898;4.662;2023-02-13T01:49:09;6.30;99.90
29803;DHT22;16702;50.898;4.662;2023-02-13T01:51:41;6.40;99.90
29803;DHT22;16702;50.898;4.662;2023-02-13T01:54:12;6.40;99.90
29803;DHT22;16702;50.898;4.662;2023-02-13T01:56:43;6.30;99.90
29803;DHT22;16702;50.898;4.662;2023-02-13T01:59:15;6.30;99.90
29803;DHT22;16702;50.898;4.662;2023-02-13T02:01:48;6.30;99.90
29803;DHT22;16702;50.898;4.662;2023-02-13T02:04:19;6.30;99.90
29803;DHT22;16702;50.898;4.662;2023-02-13T02:06:53;6.30;99.90
29803;DHT22;16702;50.898;4.662;2023-02-13T02:09:29;6.30;99.90
29803;DHT22;16702;50.898;4.662;2023-02-13T02:12:02;6.10;99.90
29803;DHT22;16702;50.898;4.662;2023-02-13T02:14:36;6.20;99.90
29803;DHT22;16702;50.898;4.662;2023-02-13T02:17:11;6.20;99.90
29803;DHT22;16702;50.898;4.662;2023-02-13T02:19:47;6.20;99.90
29803;DHT22;16702;50.898;4.662;2023-02-13T02:22:37;6.10;99.90
29803;DHT22;16702;50.898;4.662;2023-02-13T02:30:49;6.10;99.90
29803;DHT22;16702;50.898;4.662;2023-02-13T02:33:30;6.10;99.90
29803;DHT22;16702;50.898;4.662;2023-02-13T02:36:07;6.20;99.90
29803;DHT22;16702;50.898;4.662;2023-02-13T02:38:45;6.20;99.90
29803;DHT22;16702;50.898;4.662;2023-02-13T02:41:19;6.20;99.90
29803;DHT22;16702;50.898;4.662;2023-02-13T02:44:10;6.20;99.90
29803;DHT22;16702;50.898;4.662;2023-02-13T02:46:48;6.20;99.90
29803;DHT22;16702;50.898;4.662;2023-02-13T02:49:37;6.20;99.90
29803;DHT22;16702;50.898;4.662;2023-02-13T02:52:24;6.10;99.90
29803;DHT22;16702;50.898;4.662;2023-02-13T02:54:57;6.10;99.90
29803;DHT22;16702;50.898;4.662;2023-02-13T02:57:44;6.10;99.90
29803;DHT22;16702;50.898;4.662;2023-02-13T03:00:28;6.10;99.90
29803;DHT22;16702;50.898;4.662;2023-02-13T03:03:15;6.10;99.90
29803;DHT22;16702;50.898;4.662;2023-02-13T03:06:02;6.00;99.90
29803;DHT22;16702;50.898;4.662;2023-02-13T03:08:43;6.00;99.90
29803;DHT22;16702;50.898;4.662;2023-02-13T03:11:26;6.00;99.90
29803;DHT22;16702;50.898;4.662;2023-02-13T03:14:09;6.20;99.90
29803;DHT22;16702;50.898;4.662;2023-02-13T03:16:40;6.00;99.90
29803;DHT22;16702;50.898;4.662;2023-02-13T03:19:24;6.00;99.90
29803;DHT22;16702;50.898;4.662;2023-02-13T03:22:13;6.00;99.90
29803;DHT22;16702;50.898;4.662;2023-02-13T03:24:52;5.90;99.90
29803;DHT22;16702;50.898;4.662;2023-02-13T03:27:27;5.90;99.90
29803;DHT22;16702;50.898;4.662;2023-02-13T03:30:20;5.90;99.90
29803;DHT22;16702;50.898;4.662;2023-02-13T03:32:53;5.90;99.90
29803;DHT22;16702;50.898;4.662;2023-02-13T03:35:28;5.80;99.90
29803;DHT22;16702;50.898;4.662;2023-02-13T03:38:19;5.80;99.90
29803;DHT22;16702;50.898;4.662;2023-02-13T03:40:53;5.80;99.90
29803;DHT22;16702;50.898;4.662;2023-02-13T03:43:40;5.80;99.90
29803;DHT22;16702;50.898;4.662;2023-02-13T03:46:11;5.70;99.90
29803;DHT22;16702;50.898;4.662;2023-02-13T03:48:41;5.80;99.90
29803;DHT22;16702;50.898;4.662;2023-02-13T03:51:27;5.80;99.90
29803;DHT22;16702;50.898;4.662;2023-02-13T03:54:02;5.70;99.90
29803;DHT22;16702;50.898;4.662;2023-02-13T03:56:34;5.60;99.90
29803;DHT22;16702;50.898;4.662;2023-02-13T03:59:21;5.60;99.90
29803;DHT22;16702;50.898;4.662;2023-02-13T04:01:53;5.50;99.90
29803;DHT22;16702;50.898;4.662;2023-02-13T04:04:27;5.60;99.90
29803;DHT22;16702;50.898;4.662;2023-02-13T04:07:00;5.60;99.90
29803;DHT22;16702;50.898;4.662;2023-02-13T04:09:35;5.60;99.90
29803;DHT22;16702;50.898;4.662;2023-02-13T04:12:07;5.60;99.90
29803;DHT22;16702;50.898;4.662;2023-02-13T04:14:39;5.60;99.90
29803;DHT22;16702;50.898;4.662;2023-02-13T04:17:12;5.60;99.90
29803;DHT22;16702;50.898;4.662;2023-02-13T04:19:44;5.60;99.90
29803;DHT22;16702;50.898;4.662;2023-02-13T04:22:14;5.50;99.90
29803;DHT22;16702;50.898;4.662;2023-02-13T04:24:47;5.50;99.90
29803;DHT22;16702;50.898;4.662;2023-02-13T04:27:17;5.50;99.90
29803;DHT22;16702;50.898;4.662;2023-02-13T04:29:47;5.40;99.90
29803;DHT22;16702;50.898;4.662;2023-02-13T04:32:17;5.40;99.90
29803;DHT22;16702;50.898;4.662;2023-02-13T04:34:47;5.40;99.90
29803;DHT22;16702;50.898;4.662;2023-02-13T04:37:17;5.50;99.90
29803;DHT22;16702;50.898;4.662;2023-02-13T04:39:50;5.30;99.90
29803;DHT22;16702;50.898;4.662;2023-02-13T04:42:20;5.30;99.90
29803;DHT22;16702;50.898;4.662;2023-02-13T04:44:50;5.30;99.90
29803;DHT22;16702;50.898;4.662;2023-02-13T04:47:23;5.30;99.90
29803;DHT22;16702;50.898;4.662;2023-02-13T04:49:53;5.30;99.90
29803;DHT22;16702;50.898;4.662;2023-02-13T04:52:23;5.20;99.90
29803;DHT22;16702;50.898;4.662;2023-02-13T04:54:55;5.20;99.90
29803;DHT22;16702;50.898;4.662;2023-02-13T04:57:25;5.20;99.90
29803;DHT22;16702;50.898;4.662;2023-02-13T04:59:55;5.20;99.90
29803;DHT22;16702;50.898;4.662;2023-02-13T05:02:25;5.10;99.90
29803;DHT22;16702;50.898;4.662;2023-02-13T05:04:55;5.00;99.90
29803;DHT22;16702;50.898;4.662;2023-02-13T05:07:26;5.10;99.90
29803;DHT22;16702;50.898;4.662;2023-02-13T05:09:58;5.10;99.90
29803;DHT22;16702;50.898;4.662;2023-02-13T05:12:28;5.10;99.90
29803;DHT22;16702;50.898;4.662;2023-02-13T05:14:58;5.10;99.90
29803;DHT22;16702;50.898;4.662;2023-02-13T05:17:28;5.10;99.90
29803;DHT22;16702;50.898;4.662;2023-02-13T05:19:58;5.10;99.90
29803;DHT22;16702;50.898;4.662;2023-02-13T05:22:28;5.00;99.90
29803;DHT22;16702;50.898;4.662;2023-02-13T05:25:13;5.00;99.90
29803;DHT22;16702;50.898;4.662;2023-02-13T05:27:43;5.00;99.90
29803;DHT22;16702;50.898;4.662;2023-02-13T05:30:14;5.00;99.90
29803;DHT22;16702;50.898;4.662;2023-02-13T05:32:41;5.00;99.90
29803;DHT22;16702;50.898;4.662;2023-02-13T05:35:11;5.00;99.90
29803;DHT22;16702;50.898;4.662;2023-02-13T05:37:41;4.90;99.90
29803;DHT22;16702;50.898;4.662;2023-02-13T05:40:14;4.90;99.90
29803;DHT22;16702;50.898;4.662;2023-02-13T05:42:44;4.90;99.90
29803;DHT22;16702;50.898;4.662;2023-02-13T05:45:14;4.90;99.90
29803;DHT22;16702;50.898;4.662;2023-02-13T05:47:44;4.90;99.90
29803;DHT22;16702;50.898;4.662;2023-02-13T05:50:15;4.90;99.90
29803;DHT22;16702;50.898;4.662;2023-02-13T05:52:45;4.90;99.90
29803;DHT22;16702;50.898;4.662;2023-02-13T05:55:18;4.80;99.90
29803;DHT22;16702;50.898;4.662;2023-02-13T05:57:48;4.80;99.90
29803;DHT22;16702;50.898;4.662;2023-02-13T06:00:18;4.80;99.90
29803;DHT22;16702;50.898;4.662;2023-02-13T06:02:49;4.70;99.90
29803;DHT22;16702;50.898;4.662;2023-02-13T06:05:19;4.70;99.90
29803;DHT22;16702;50.898;4.662;2023-02-13T06:07:49;4.80;99.90
29803;DHT22;16702;50.898;4.662;2023-02-13T06:10:21;4.80;99.90
29803;DHT22;16702;50.898;4.662;2023-02-13T06:12:51;4.80;99.90
29803;DHT22;16702;50.898;4.662;2023-02-13T06:15:22;4.70;99.90
29803;DHT22;16702;50.898;4.662;2023-02-13T06:17:52;4.70;99.90
29803;DHT22;16702;50.898;4.662;2023-02-13T06:20:22;4.80;99.90
29803;DHT22;16702;50.898;4.662;2023-02-13T06:22:52;4.80;99.90
29803;DHT22;16702;50.898;4.662;2023-02-13T06:25:24;4.80;99.90
29803;DHT22;16702;50.898;4.662;2023-02-13T06:27:54;4.80;99.90
29803;DHT22;16702;50.898;4.662;2023-02-13T06:30:25;4.70;99.90
29803;DHT22;16702;50.898;4.662;2023-02-13T06:32:55;4.70;99.90
29803;DHT22;16702;50.898;4.662;2023-02-13T06:35:25;4.70;99.90
29803;DHT22;16702;50.898;4.662;2023-02-13T06:37:55;4.70;99.90
29803;DHT22;16702;50.898;4.662;2023-02-13T06:40:27;4.70;99.90
29803;DHT22;16702;50.898;4.662;2023-02-13T06:42:57;4.80;99.90
29803;DHT22;16702;50.898;4.662;2023-02-13T06:45:27;4.70;99.90
29803;DHT22;16702;50.898;4.662;2023-02-13T06:47:57;4.70;99.90
29803;DHT22;16702;50.898;4.662;2023-02-13T06:50:27;4.70;99.90
29803;DHT22;16702;50.898;4.662;2023-02-13T06:52:58;4.70;99.90
29803;DHT22;16702;50.898;4.662;2023-02-13T06:55:31;4.60;99.90
29803;DHT22;16702;50.898;4.662;2023-02-13T06:58:01;4.80;99.90
29803;DHT22;16702;50.898;4.662;2023-02-13T07:00:31;4.70;99.90
29803;DHT22;16702;50.898;4.662;2023-02-13T07:03:01;4.70;99.90
29803;DHT22;16702;50.898;4.662;2023-02-13T07:05:32;4.60;99.90
29803;DHT22;16702;50.898;4.662;2023-02-13T07:08:02;4.70;99.90
29803;DHT22;16702;50.898;4.662;2023-02-13T07:10:35;4.60;99.90
29803;DHT22;16702;50.898;4.662;2023-02-13T07:13:05;4.60;99.90
29803;DHT22;16702;50.898;4.662;2023-02-13T07:15:35;4.70;99.90
29803;DHT22;16702;50.898;4.662;2023-02-13T07:18:05;4.70;99.90
29803;DHT22;16702;50.898;4.662;2023-02-13T07:20:38;4.60;99.90
29803;DHT22;16702;50.898;4.662;2023-02-13T07:23:09;4.60;99.90
29803;DHT22;16702;50.898;4.662;2023-02-13T07:25:41;4.60;99.90
29803;DHT22;16702;50.898;4.662;2023-02-13T07:28:11;4.70;99.90
29803;DHT22;16702;50.898;4.662;2023-02-13T07:30:42;4.70;99.90
29803;DHT22;16702;50.898;4.662;2023-02-13T07:33:12;4.60;99.90
29803;DHT22;16702;50.898;4.662;2023-02-13T07:35:45;4.70;99.90
29803;DHT22;16702;50.898;4.662;2023-02-13T07:38:15;4.70;99.90
29803;DHT22;16702;50.898;4.662;2023-02-13T07:40:48;4.60;99.90
29803;DHT22;16702;50.898;4.662;2023-02-13T07:43:18;4.60;99.90
29803;DHT22;16702;50.898;4.662;2023-02-13T07:45:48;4.60;99.90
29803;DHT22;16702;50.898;4.662;2023-02-13T07:48:21;4.60;99.90
29803;DHT22;16702;50.898;4.662;2023-02-13T07:50:54;4.60;99.90
29803;DHT22;16702;50.898;4.662;2023-02-13T07:53:24;4.70;99.90
29803;DHT22;16702;50.898;4.662;2023-02-13T07:55:57;4.70;99.90
29803;DHT22;16702;50.898;4.662;2023-02-13T07:58:27;4.70;99.90
29803;DHT22;16702;50.898;4.662;2023-02-13T08:00:57;4.70;99.90
29803;DHT22;16702;50.898;4.662;2023-02-13T08:03:27;4.70;99.90
29803;DHT22;16702;50.898;4.662;2023-02-13T08:05:57;4.80;99.90
29803;DHT22;16702;50.898;4.662;2023-02-13T08:08:27;4.80;99.90
29803;DHT22;16702;50.898;4.662;2023-02-13T08:11:04;4.80;99.90
29803;DHT22;16702;50.898;4.662;2023-02-13T08:13:47;4.80;99.90
29803;DHT22;16702;50.898;4.662;2023-02-13T08:16:17;4.80;99.90
29803;DHT22;16702;50.898;4.662;2023-02-13T08:18:47;4.80;99.90
29803;DHT22;16702;50.898;4.662;2023-02-13T08:21:18;4.80;99.90
29803;DHT22;16702;50.898;4.662;2023-02-13T08:23:48;4.90;99.90
29803;DHT22;16702;50.898;4.662;2023-02-13T08:26:20;4.80;99.90
29803;DHT22;16702;50.898;4.662;2023-02-13T08:28:50;4.90;99.90
29803;DHT22;16702;50.898;4.662;2023-02-13T08:31:21;4.90;99.90
29803;DHT22;16702;50.898;4.662;2023-02-13T08:33:51;4.90;99.90
29803;DHT22;16702;50.898;4.662;2023-02-13T08:36:21;4.90;99.90
29803;DHT22;16702;50.898;4.662;2023-02-13T08:38:51;5.00;99.90
29803;DHT22;16702;50.898;4.662;2023-02-13T08:41:24;4.90;99.90
29803;DHT22;16702;50.898;4.662;2023-02-13T08:43:54;5.00;99.90
29803;DHT22;16702;50.898;4.662;2023-02-13T08:46:24;4.90;99.90
29803;DHT22;16702;50.898;4.662;2023-02-13T08:48:54;5.10;99.90
29803;DHT22;16702;50.898;4.662;2023-02-13T08:51:24;5.10;99.90
29803;DHT22;16702;50.898;4.662;2023-02-13T08:53:54;5.20;99.90
29803;DHT22;16702;50.898;4.662;2023-02-13T08:56:27;5.20;99.90
29803;DHT22;16702;50.898;4.662;2023-02-13T08:58:57;5.20;99.90
29803;DHT22;16702;50.898;4.662;2023-02-13T09:01:27;5.30;99.90
29803;DHT22;16702;50.898;4.662;2023-02-13T09:03:58;5.30;99.90
29803;DHT22;16702;50.898;4.662;2023-02-13T09:06:28;5.30;99.90
29803;DHT22;16702;50.898;4.662;2023-02-13T09:08:58;5.40;99.90
29803;DHT22;16702;50.898;4.662;2023-02-13T09:11:32;5.40;99.90
29803;DHT22;16702;50.898;4.662;2023-02-13T09:14:02;5.50;99.90
29803;DHT22;16702;50.898;4.662;2023-02-13T09:16:32;5.50;99.90
29803;DHT22;16702;50.898;4.662;2023-02-13T09:19:02;5.60;99.90
29803;DHT22;16702;50.898;4.662;2023-02-13T09:21:33;5.60;99.90
29803;DHT22;16702;50.898;4.662;2023-02-13T09:24:05;5.70;99.90
29803;DHT22;16702;50.898;4.662;2023-02-13T09:26:38;5.70;99.90
29803;DHT22;16702;50.898;4.662;2023-02-13T09:29:08;5.80;99.90
29803;DHT22;16702;50.898;4.662;2023-02-13T09:31:38;5.80;99.90
29803;DHT22;16702;50.898;4.662;2023-02-13T09:34:08;5.90;99.90
29803;DHT22;16702;50.898;4.662;2023-02-13T09:36:38;5.90;99.90
29803;DHT22;16702;50.898;4.662;2023-02-13T09:39:08;6.00;99.90
29803;DHT22;16702;50.898;4.662;2023-02-13T09:41:41;6.00;99.90
29803;DHT22;16702;50.898;4.662;2023-02-13T09:44:14;6.10;99.90
29803;DHT22;16702;50.898;4.662;2023-02-13T09:47:00;6.20;99.90
29803;DHT22;16702;50.898;4.662;2023-02-13T09:49:32;6.20;99.90
29803;DHT22;16702;50.898;4.662;2023-02-13T09:52:04;6.30;99.90
29803;DHT22;16702;50.898;4.662;2023-02-13T09:54:34;6.30;99.90
29803;DHT22;16702;50.898;4.662;2023-02-13T09:57:09;6.40;99.90
29803;DHT22;16702;50.898;4.662;2023-02-13T09:59:53;6.50;99.90
29803;DHT22;16702;50.898;4.662;2023-02-13T10:02:30;6.60;99.90
29803;DHT22;16702;50.898;4.662;2023-02-13T10:05:07;6.70;99.90
29803;DHT22;16702;50.898;4.662;2023-02-13T10:07:41;6.80;99.90
29803;DHT22;16702;50.898;4.662;2023-02-13T10:10:16;6.80;99.90
29803;DHT22;16702;50.898;4.662;2023-02-13T10:15:38;7.00;99.90
29803;DHT22;16702;50.898;4.662;2023-02-13T10:18:11;7.00;99.90
29803;DHT22;16702;50.898;4.662;2023-02-13T10:20:44;7.10;99.90
29803;DHT22;16702;50.898;4.662;2023-02-13T10:23:18;7.20;99.90
29803;DHT22;16702;50.898;4.662;2023-02-13T10:25:52;7.20;99.90
29803;DHT22;16702;50.898;4.662;2023-02-13T10:28:28;7.30;99.90
29803;DHT22;16702;50.898;4.662;2023-02-13T10:31:04;7.40;99.90
29803;DHT22;16702;50.898;4.662;2023-02-13T10:33:37;7.40;99.90
29803;DHT22;16702;50.898;4.662;2023-02-13T10:36:11;7.50;99.90
29803;DHT22;16702;50.898;4.662;2023-02-13T10:38:45;7.60;99.90
29803;DHT22;16702;50.898;4.662;2023-02-13T10:41:22;7.70;99.90
29803;DHT22;16702;50.898;4.662;2023-02-13T10:43:59;7.70;99.90
29803;DHT22;16702;50.898;4.662;2023-02-13T10:46:36;7.80;99.90
29803;DHT22;16702;50.898;4.662;2023-02-13T10:49:26;7.90;99.90
29803;DHT22;16702;50.898;4.662;2023-02-13T10:52:01;8.00;99.90
29803;DHT22;16702;50.898;4.662;2023-02-13T10:54:46;8.10;99.90
29803;DHT22;16702;50.898;4.662;2023-02-13T10:57:21;8.20;99.90
29803;DHT22;16702;50.898;4.662;2023-02-13T10:59:57;8.30;99.90
29803;DHT22;16702;50.898;4.662;2023-02-13T11:02:33;8.30;99.90
29803;DHT22;16702;50.898;4.662;2023-02-13T11:05:10;8.40;99.90
29803;DHT22;16702;50.898;4.662;2023-02-13T11:07:42;8.40;99.90
29803;DHT22;16702;50.898;4.662;2023-02-13T11:10:14;8.40;99.90
29803;DHT22;16702;50.898;4.662;2023-02-13T11:12:44;8.40;99.90
29803;DHT22;16702;50.898;4.662;2023-02-13T11:15:23;8.50;99.90
29803;DHT22;16702;50.898;4.662;2023-02-13T11:17:57;8.50;99.90
29803;DHT22;16702;50.898;4.662;2023-02-13T11:20:30;8.60;99.90
29803;DHT22;16702;50.898;4.662;2023-02-13T11:23:14;8.70;99.90
29803;DHT22;16702;50.898;4.662;2023-02-13T11:25:53;8.80;99.90
29803;DHT22;16702;50.898;4.662;2023-02-13T11:28:24;8.80;99.90
29803;DHT22;16702;50.898;4.662;2023-02-13T11:31:07;8.80;99.90
29803;DHT22;16702;50.898;4.662;2023-02-13T11:33:41;8.90;99.90
29803;DHT22;16702;50.898;4.662;2023-02-13T11:36:13;8.90;99.90
29803;DHT22;16702;50.898;4.662;2023-02-13T11:38:44;9.00;99.90
29803;DHT22;16702;50.898;4.662;2023-02-13T11:41:14;9.10;99.90
29803;DHT22;16702;50.898;4.662;2023-02-13T11:43:48;9.10;99.90
29803;DHT22;16702;50.898;4.662;2023-02-13T11:46:20;9.20;99.90
29803;DHT22;16702;50.898;4.662;2023-02-13T11:49:00;9.30;99.90
29803;DHT22;16702;50.898;4.662;2023-02-13T11:51:35;9.30;99.90
29803;DHT22;16702;50.898;4.662;2023-02-13T11:54:06;9.30;99.90
29803;DHT22;16702;50.898;4.662;2023-02-13T11:56:47;9.40;99.90
29803;DHT22;16702;50.898;4.662;2023-02-13T11:59:31;9.40;99.90
29803;DHT22;16702;50.898;4.662;2023-02-13T12:02:03;9.50;99.90
29803;DHT22;16702;50.898;4.662;2023-02-13T12:04:36;9.50;99.90
29803;DHT22;16702;50.898;4.662;2023-02-13T12:07:11;9.60;99.90
29803;DHT22;16702;50.898;4.662;2023-02-13T12:09:42;9.70;99.90
29803;DHT22;16702;50.898;4.662;2023-02-13T12:12:14;9.70;99.90
29803;DHT22;16702;50.898;4.662;2023-02-13T12:14:45;9.70;99.90
29803;DHT22;16702;50.898;4.662;2023-02-13T12:17:16;9.90;99.90
29803;DHT22;16702;50.898;4.662;2023-02-13T12:20:00;9.90;99.90
29803;DHT22;16702;50.898;4.662;2023-02-13T12:22:31;10.00;99.90
29803;DHT22;16702;50.898;4.662;2023-02-13T12:25:11;10.10;99.90
29803;DHT22;16702;50.898;4.662;2023-02-13T12:27:44;10.20;99.90
29803;DHT22;16702;50.898;4.662;2023-02-13T12:30:26;10.20;99.90
29803;DHT22;16702;50.898;4.662;2023-02-13T12:33:04;10.10;99.90
29803;DHT22;16702;50.898;4.662;2023-02-13T12:35:47;10.30;99.90
29803;DHT22;16702;50.898;4.662;2023-02-13T12:38:36;10.20;99.90
29803;DHT22;16702;50.898;4.662;2023-02-13T12:41:12;10.40;99.90
29803;DHT22;16702;50.898;4.662;2023-02-13T12:43:48;10.50;99.90
29803;DHT22;16702;50.898;4.662;2023-02-13T12:46:24;10.50;99.90
29803;DHT22;16702;50.898;4.662;2023-02-13T12:48:57;10.50;99.90
29803;DHT22;16702;50.898;4.662;2023-02-13T12:51:35;10.70;99.90
29803;DHT22;16702;50.898;4.662;2023-02-13T12:54:23;10.80;99.90
29803;DHT22;16702;50.898;4.662;2023-02-13T12:56:58;10.80;99.90
29803;DHT22;16702;50.898;4.662;2023-02-13T12:59:35;10.80;99.90
29803;DHT22;16702;50.898;4.662;2023-02-13T13:04:58;10.90;99.90
29803;DHT22;16702;50.898;4.662;2023-02-13T13:13:23;11.10;99.90
29803;DHT22;16702;50.898;4.662;2023-02-13T13:15:57;11.10;99.90
29803;DHT22;16702;50.898;4.662;2023-02-13T13:18:31;11.10;99.90
29803;DHT22;16702;50.898;4.662;2023-02-13T13:21:11;11.20;99.90
29803;DHT22;16702;50.898;4.662;2023-02-13T13:23:47;11.30;99.90
29803;DHT22;16702;50.898;4.662;2023-02-13T13:26:20;11.30;99.90
29803;DHT22;16702;50.898;4.662;2023-02-13T13:28:54;11.30;99.90
29803;DHT22;16702;50.898;4.662;2023-02-13T13:31:25;11.40;99.90
29803;DHT22;16702;50.898;4.662;2023-02-13T13:33:59;11.40;99.90
29803;DHT22;16702;50.898;4.662;2023-02-13T13:36:33;11.50;99.90
29803;DHT22;16702;50.898;4.662;2023-02-13T13:39:07;11.50;99.90
29803;DHT22;16702;50.898;4.662;2023-02-13T13:41:40;11.50;99.90
29803;DHT22;16702;50.898;4.662;2023-02-13T13:44:18;11.60;99.90
29803;DHT22;16702;50.898;4.662;2023-02-13T13:46:54;11.60;99.90
29803;DHT22;16702;50.898;4.662;2023-02-13T13:49:31;11.60;99.90
29803;DHT22;16702;50.898;4.662;2023-02-13T13:52:17;11.70;99.90
29803;DHT22;16702;50.898;4.662;2023-02-13T13:54:48;11.70;99.90
29803;DHT22;16702;50.898;4.662;2023-02-13T13:57:20;11.80;99.90
29803;DHT22;16702;50.898;4.662;2023-02-13T14:02:48;11.80;99.90
29803;DHT22;16702;50.898;4.662;2023-02-13T14:05:23;11.80;99.90
29803;DHT22;16702;50.898;4.662;2023-02-13T14:07:54;11.90;99.90
29803;DHT22;16702;50.898;4.662;2023-02-13T14:13:09;12.00;99.90
29803;DHT22;16702;50.898;4.662;2023-02-13T14:15:57;12.00;99.90
29803;DHT22;16702;50.898;4.662;2023-02-13T14:18:30;12.00;99.90
29803;DHT22;16702;50.898;4.662;2023-02-13T14:21:01;12.00;99.90
29803;DHT22;16702;50.898;4.662;2023-02-13T14:23:33;12.10;99.90
29803;DHT22;16702;50.898;4.662;2023-02-13T14:28:57;12.10;99.90
29803;DHT22;16702;50.898;4.662;2023-02-13T14:31:27;12.10;99.90
29803;DHT22;16702;50.898;4.662;2023-02-13T14:34:02;12.20;99.90
29803;DHT22;16702;50.898;4.662;2023-02-13T14:36:33;12.10;99.90
29803;DHT22;16702;50.898;4.662;2023-02-13T14:39:04;12.20;99.90
29803;DHT22;16702;50.898;4.662;2023-02-13T14:41:43;12.30;99.90
29803;DHT22;16702;50.898;4.662;2023-02-13T14:44:15;12.20;99.90
29803;DHT22;16702;50.898;4.662;2023-02-13T14:46:46;12.20;99.90
29803;DHT22;16702;50.898;4.662;2023-02-13T14:49:21;12.10;99.90
29803;DHT22;16702;50.898;4.662;2023-02-13T14:51:53;12.20;99.90
29803;DHT22;16702;50.898;4.662;2023-02-13T14:54:25;12.20;99.90
29803;DHT22;16702;50.898;4.662;2023-02-13T14:56:58;12.20;99.90
29803;DHT22;16702;50.898;4.662;2023-02-13T14:59:30;12.20;99.90
29803;DHT22;16702;50.898;4.662;2023-02-13T15:02:06;12.20;99.90
29803;DHT22;16702;50.898;4.662;2023-02-13T15:04:44;12.20;99.90
29803;DHT22;16702;50.898;4.662;2023-02-13T15:07:17;12.30;99.90
29803;DHT22;16702;50.898;4.662;2023-02-13T15:09:50;12.20;99.90
29803;DHT22;16702;50.898;4.662;2023-02-13T15:12:25;12.30;99.90
29803;DHT22;16702;50.898;4.662;2023-02-13T15:14:55;12.30;99.90
29803;DHT22;16702;50.898;4.662;2023-02-13T15:17:27;12.20;99.90
29803;DHT22;16702;50.898;4.662;2023-02-13T15:20:02;12.20;99.90
29803;DHT22;16702;50.898;4.662;2023-02-13T15:22:34;12.30;99.90
29803;DHT22;16702;50.898;4.662;2023-02-13T15:25:06;12.30;99.90
29803;DHT22;16702;50.898;4.662;2023-02-13T15:27:37;12.20;99.90
29803;DHT22;16702;50.898;4.662;2023-02-13T15:30:17;12.20;99.90
29803;DHT22;16702;50.898;4.662;2023-02-13T15:32:52;12.30;99.90
29803;DHT22;16702;50.898;4.662;2023-02-13T15:35:26;12.30;99.90
29803;DHT22;16702;50.898;4.662;2023-02-13T15:37:57;12.30;99.90
29803;DHT22;16702;50.898;4.662;2023-02-13T15:40:28;12.30;99.90
29803;DHT22;16702;50.898;4.662;2023-02-13T15:42:59;12.30;99.90
29803;DHT22;16702;50.898;4.662;2023-02-13T15:45:29;12.20;99.90
29803;DHT22;16702;50.898;4.662;2023-02-13T15:47:59;12.20;99.90
29803;DHT22;16702;50.898;4.662;2023-02-13T15:50:33;12.30;99.90
29803;DHT22;16702;50.898;4.662;2023-02-13T15:53:04;12.20;99.90
29803;DHT22;16702;50.898;4.662;2023-02-13T15:55:38;12.20;99.90
29803;DHT22;16702;50.898;4.662;2023-02-13T15:58:10;12.10;99.90
29803;DHT22;16702;50.898;4.662;2023-02-13T16:00:41;12.10;99.90
29803;DHT22;16702;50.898;4.662;2023-02-13T16:03:13;12.10;99.90
29803;DHT22;16702;50.898;4.662;2023-02-13T16:05:46;12.10;99.90
29803;DHT22;16702;50.898;4.662;2023-02-13T16:08:31;12.10;99.90
29803;DHT22;16702;50.898;4.662;2023-02-13T16:11:18;12.00;99.90
29803;DHT22;16702;50.898;4.662;2023-02-13T16:13:55;12.00;99.90
29803;DHT22;16702;50.898;4.662;2023-02-13T16:16:26;12.10;99.90
29803;DHT22;16702;50.898;4.662;2023-02-13T16:18:57;12.00;99.90
29803;DHT22;16702;50.898;4.662;2023-02-13T16:21:30;12.00;99.90
29803;DHT22;16702;50.898;4.662;2023-02-13T16:24:02;11.90;99.90
29803;DHT22;16702;50.898;4.662;2023-02-13T16:26:33;11.80;99.90
29803;DHT22;16702;50.898;4.662;2023-02-13T16:29:07;11.90;99.90
29803;DHT22;16702;50.898;4.662;2023-02-13T16:31:38;11.90;99.90
29803;DHT22;16702;50.898;4.662;2023-02-13T16:34:12;11.80;99.90
29803;DHT22;16702;50.898;4.662;2023-02-13T16:36:45;11.80;99.90
29803;DHT22;16702;50.898;4.662;2023-02-13T16:39:17;11.80;99.90
29803;DHT22;16702;50.898;4.662;2023-02-13T16:41:50;11.70;99.90
29803;DHT22;16702;50.898;4.662;2023-02-13T16:44:21;11.70;99.90
29803;DHT22;16702;50.898;4.662;2023-02-13T16:46:52;11.60;99.90